createdAt,value
2023-05-08T00:02:31.120Z,20.87
2023-05-08T00:07:34.704Z,20.87
2023-05-08T00:12:38.706Z,20.86
2023-05-08T00:17:43.842Z,20.86
2023-05-08T00:22:47.319Z,20.86
2023-05-08T00:27:50.963Z,20.87
2023-05-08T00:32:55.882Z,20.85
2023-05-08T00:37:59.455Z,20.85
2023-05-08T00:43:02.985Z,20.85
2023-05-08T00:48:08.488Z,20.84
2023-05-08T00:53:13.457Z,20.83
2023-05-08T00:58:17.226Z,20.85
2023-05-08T01:03:22.756Z,20.83
2023-05-08T01:08:26.909Z,20.80
2023-05-08T01:13:37.852Z,20.81
2023-05-08T01:18:46.088Z,20.83
2023-05-08T01:24:20.928Z,20.83
2023-05-08T01:29:36.503Z,20.81
2023-05-08T01:34:47.993Z,20.81
2023-05-08T01:39:56.440Z,20.78
2023-05-08T01:45:03.485Z,20.80
2023-05-08T01:50:13.724Z,20.80
2023-05-08T01:55:34.658Z,20.79
2023-05-08T02:00:40.246Z,20.78
2023-05-08T02:05:45.843Z,20.77
2023-05-08T02:10:50.153Z,20.75
2023-05-08T02:15:55.380Z,20.75
2023-05-08T02:21:01.016Z,20.75
2023-05-08T02:26:05.489Z,20.78
2023-05-08T02:31:09.700Z,20.76
2023-05-08T02:36:17.547Z,20.73
2023-05-08T02:41:22.916Z,20.73
2023-05-08T02:46:29.527Z,20.73
2023-05-08T02:51:41.275Z,20.75
2023-05-08T02:56:48.873Z,20.72
2023-05-08T03:01:55.907Z,20.72
2023-05-08T03:07:01.020Z,20.72
2023-05-08T03:12:08.176Z,20.70
2023-05-08T03:17:15.047Z,20.70
2023-05-08T03:22:21.212Z,20.71
2023-05-08T03:27:25.389Z,20.69
2023-05-08T03:32:30.119Z,20.69
2023-05-08T03:37:35.306Z,20.68
2023-05-08T03:42:39.034Z,20.68
2023-05-08T03:47:44.309Z,20.67
2023-05-08T03:52:49.592Z,20.67
2023-05-08T03:57:58.584Z,20.66
2023-05-08T04:03:11.102Z,20.68
2023-05-08T04:08:19.103Z,20.64
2023-05-08T04:13:29.050Z,20.66
2023-05-08T04:18:33.313Z,20.65
2023-05-08T04:23:40.468Z,20.64
2023-05-08T04:28:44.352Z,20.66
2023-05-08T04:33:48.002Z,20.65
2023-05-08T04:38:52.915Z,20.63
2023-05-08T04:43:56.528Z,20.66
2023-05-08T04:49:00.137Z,20.65
2023-05-08T04:54:05.235Z,20.64
2023-05-08T04:59:08.766Z,20.64
2023-05-08T05:04:12.430Z,20.60
2023-05-08T05:09:17.514Z,20.60
2023-05-08T05:14:21.183Z,20.57
2023-05-08T05:19:24.615Z,20.57
2023-05-08T05:24:29.472Z,20.59
2023-05-08T05:29:33.009Z,20.55
2023-05-08T05:34:36.709Z,20.58
2023-05-08T05:39:41.632Z,20.58
2023-05-08T05:44:45.245Z,20.56
2023-05-08T05:49:48.704Z,20.56
2023-05-08T05:54:53.551Z,20.55
2023-05-08T05:59:57.064Z,20.56
2023-05-08T06:05:00.567Z,20.59
2023-05-08T06:10:06.073Z,20.55
2023-05-08T06:15:10.488Z,20.54
2023-05-08T06:20:14.341Z,20.54
2023-05-08T06:25:20.132Z,20.56
2023-05-08T06:30:23.793Z,20.55
2023-05-08T06:35:27.230Z,20.55
2023-05-08T06:40:32.227Z,20.53
2023-05-08T06:45:35.817Z,20.52
2023-05-08T06:50:39.621Z,20.55
2023-05-08T06:55:45.946Z,20.56
2023-05-08T07:00:49.442Z,20.56
2023-05-08T07:05:53.044Z,20.58
2023-05-08T07:10:57.916Z,20.54
2023-05-08T07:16:01.475Z,20.58
2023-05-08T07:21:05.216Z,20.60
2023-05-08T07:26:10.142Z,20.60
2023-05-08T07:31:13.767Z,20.61
2023-05-08T07:36:17.439Z,20.61
2023-05-08T07:41:22.386Z,20.62
2023-05-08T07:46:25.956Z,20.63
2023-05-08T07:51:29.518Z,20.63
2023-05-08T07:56:34.348Z,20.63
2023-05-08T08:01:37.890Z,20.64
2023-05-08T08:06:41.727Z,20.64
2023-05-08T08:11:46.649Z,20.64
2023-05-08T08:16:50.293Z,20.64
2023-05-08T08:21:53.849Z,20.65
2023-05-08T08:26:58.766Z,20.66
2023-05-08T08:32:03.435Z,20.66
2023-05-08T08:37:07.133Z,20.66
2023-05-08T08:42:12.548Z,20.66
2023-05-08T08:47:18.387Z,20.68
2023-05-08T08:52:29.332Z,20.68
2023-05-08T08:57:35.942Z,20.68
2023-05-08T09:02:39.538Z,20.69
2023-05-08T09:07:44.065Z,20.69
2023-05-08T09:12:49.602Z,20.69
2023-05-08T09:17:53.213Z,20.70
2023-05-08T09:22:56.984Z,20.70
2023-05-08T09:28:17.112Z,20.70
2023-05-08T09:33:21.010Z,20.69
2023-05-08T09:38:35.244Z,20.70
2023-05-08T09:43:40.418Z,20.72
2023-05-08T09:48:45.966Z,20.72
2023-05-08T09:53:52.387Z,20.71
2023-05-08T09:58:57.307Z,20.73
2023-05-08T10:04:01.548Z,20.72
2023-05-08T10:09:09.865Z,20.73
2023-05-08T10:14:14.789Z,20.72
2023-05-08T10:19:19.631Z,20.72
2023-05-08T10:24:28.375Z,20.72
2023-05-08T10:29:37.448Z,20.72
2023-05-08T10:34:42.874Z,20.70
2023-05-08T10:39:46.670Z,20.71
2023-05-08T10:44:51.862Z,20.72
2023-05-08T10:50:03.236Z,20.74
2023-05-08T10:55:24.293Z,20.73
2023-05-08T11:00:33.312Z,20.74
2023-05-08T11:05:47.781Z,20.75
2023-05-08T11:10:54.341Z,20.73
2023-05-08T11:15:59.282Z,20.74
2023-05-08T11:21:04.887Z,20.75
2023-05-08T11:26:16.660Z,20.74
2023-05-08T11:31:21.826Z,20.74
2023-05-08T11:36:26.104Z,20.74
2023-05-08T11:41:29.610Z,20.73
2023-05-08T11:46:40.546Z,20.74
2023-05-08T11:51:47.784Z,20.73
2023-05-08T11:56:52.226Z,20.74
2023-05-08T12:02:07.772Z,20.74
2023-05-08T12:07:12.955Z,20.75
2023-05-08T12:12:16.454Z,20.75
2023-05-08T12:17:21.428Z,20.74
2023-05-08T12:22:24.959Z,20.77
2023-05-08T12:27:28.570Z,20.75
2023-05-08T12:32:33.519Z,20.76
2023-05-08T12:37:37.018Z,20.76
2023-05-08T12:42:43.924Z,20.76
2023-05-08T12:47:49.772Z,20.76
2023-05-08T12:52:53.568Z,20.76
2023-05-08T12:58:04.756Z,20.78
2023-05-08T13:03:10.904Z,20.77
2023-05-08T13:08:14.570Z,20.77
2023-05-08T13:13:20.033Z,20.77
2023-05-08T13:18:26.845Z,20.76
2023-05-08T13:23:30.439Z,20.76
2023-05-08T13:28:34.058Z,20.77
2023-05-08T13:33:39.101Z,20.77
2023-05-08T13:38:42.597Z,20.79
2023-05-08T13:43:46.132Z,20.78
2023-05-08T13:48:51.071Z,20.80
2023-05-08T13:53:54.556Z,20.80
2023-05-08T13:58:58.039Z,20.81
2023-05-08T14:04:03.101Z,20.81
2023-05-08T14:09:06.627Z,20.82
2023-05-08T14:14:10.155Z,20.81
2023-05-08T14:19:15.066Z,20.80
2023-05-08T14:24:18.526Z,20.81
2023-05-08T14:29:22.033Z,20.81
2023-05-08T14:34:26.972Z,20.80
2023-05-08T14:39:30.366Z,20.82
2023-05-08T14:44:34.072Z,20.81
2023-05-08T14:49:39.137Z,20.82
2023-05-08T14:54:42.869Z,20.81
2023-05-08T14:59:55.018Z,20.81
2023-05-08T15:05:00.399Z,20.81
2023-05-08T15:10:04.213Z,20.81
2023-05-08T15:15:08.601Z,20.83
2023-05-08T15:20:13.651Z,20.83
2023-05-08T15:25:17.437Z,20.83
2023-05-08T15:30:21.253Z,20.84
2023-05-08T15:35:26.163Z,20.83
2023-05-08T15:40:29.630Z,20.83
2023-05-08T15:45:33.079Z,20.85
2023-05-08T15:50:38.014Z,20.84
2023-05-08T15:55:42.438Z,20.86
2023-05-08T16:00:45.890Z,20.87
2023-05-08T16:05:52.184Z,20.87
2023-05-08T16:10:56.123Z,20.87
2023-05-08T16:16:04.219Z,20.89
2023-05-08T16:21:12.237Z,20.88
2023-05-08T16:26:16.734Z,20.88
2023-05-08T16:31:20.202Z,20.87
2023-05-08T16:36:25.196Z,20.88
2023-05-08T16:41:28.623Z,20.88
2023-05-08T16:46:32.224Z,20.89
2023-05-08T16:51:37.092Z,20.92
2023-05-08T16:56:40.577Z,20.92
2023-05-08T17:01:44.108Z,20.91
2023-05-08T17:06:49.225Z,20.91
2023-05-08T17:11:52.701Z,20.91
2023-05-08T17:16:56.130Z,20.92
2023-05-08T17:22:00.969Z,20.92
2023-05-08T17:27:04.545Z,20.91
2023-05-08T17:32:08.116Z,20.92
2023-05-08T17:37:13.198Z,20.93
2023-05-08T17:42:16.719Z,20.93
2023-05-08T17:47:20.352Z,20.93
2023-05-08T17:52:25.441Z,20.93
2023-05-08T17:57:28.869Z,20.93
2023-05-08T18:02:32.442Z,20.92
2023-05-08T18:07:37.379Z,20.93
2023-05-08T18:12:40.909Z,20.93
2023-05-08T18:17:44.525Z,20.93
2023-05-08T18:22:49.456Z,20.95
2023-05-08T18:27:52.994Z,20.94
2023-05-08T18:32:56.513Z,20.95
2023-05-08T18:38:01.428Z,20.94
2023-05-08T18:43:04.971Z,20.95
2023-05-08T18:48:08.513Z,20.94
2023-05-08T18:53:14.763Z,20.94
2023-05-08T18:58:18.264Z,20.95
2023-05-08T19:03:21.762Z,20.95
2023-05-08T19:08:26.817Z,20.95
2023-05-08T19:13:30.344Z,20.95
2023-05-08T19:18:33.990Z,20.95
2023-05-08T19:23:39.049Z,20.96
2023-05-08T19:28:42.569Z,20.96
2023-05-08T19:33:47.402Z,20.95
2023-05-08T19:38:52.263Z,20.97
2023-05-08T19:43:55.751Z,20.97
2023-05-08T19:48:59.266Z,20.96
2023-05-08T19:54:04.136Z,20.96
2023-05-08T19:59:07.621Z,20.97
2023-05-08T20:04:11.177Z,20.97
2023-05-08T20:09:16.177Z,20.97
2023-05-08T20:14:19.645Z,20.97
2023-05-08T20:19:23.254Z,20.95
2023-05-08T20:24:28.187Z,20.94
2023-05-08T20:29:31.694Z,20.95
2023-05-08T20:34:35.289Z,20.95
2023-05-08T20:39:40.179Z,20.95
2023-05-08T20:44:43.661Z,20.94
2023-05-08T20:49:47.186Z,20.96
2023-05-08T20:54:52.160Z,20.95
2023-05-08T20:59:55.681Z,20.95
2023-05-08T21:04:59.250Z,20.95
2023-05-08T21:10:04.382Z,20.95
2023-05-08T21:15:09.289Z,20.95
2023-05-08T21:20:13.825Z,20.95
2023-05-08T21:25:19.213Z,20.95
2023-05-08T21:30:22.808Z,20.95
2023-05-08T21:35:26.479Z,20.96
2023-05-08T21:40:31.528Z,20.96
2023-05-08T21:45:35.353Z,20.95
2023-05-08T21:50:38.891Z,20.95
2023-05-08T21:55:43.773Z,20.95
2023-05-08T22:00:47.512Z,20.94
2023-05-08T22:05:50.955Z,20.95
2023-05-08T22:10:56.392Z,20.94
2023-05-08T22:15:59.934Z,20.94
2023-05-08T22:21:03.372Z,20.95
2023-05-08T22:26:08.512Z,20.94
2023-05-08T22:31:12.684Z,20.95
2023-05-08T22:36:16.243Z,20.95
2023-05-08T22:41:22.400Z,20.95
2023-05-08T22:46:26.163Z,20.94
2023-05-08T22:51:30.528Z,20.95
2023-05-08T22:56:35.926Z,20.95
2023-05-08T23:01:39.577Z,20.94
2023-05-08T23:06:43.188Z,20.94
2023-05-08T23:11:49.941Z,20.95
2023-05-08T23:16:53.630Z,20.95
2023-05-08T23:21:57.241Z,20.95
2023-05-08T23:27:02.100Z,20.94
2023-05-08T23:32:05.657Z,20.95
2023-05-08T23:37:09.108Z,20.95
2023-05-08T23:42:14.419Z,20.95
2023-05-08T23:47:19.428Z,20.95
2023-05-08T23:52:23.398Z,20.95
2023-05-08T23:57:28.323Z,20.95
